CheckWX is a tool to help pilots better visualize weather data.  It is not intended as a substitute for an official pre-flight weather briefing.

00:30:37 UTC

KLGU TAF
Logan-Cache Airport
Logan, Utah, USA
KLGU 162321Z 1700/1724 20020G30KT P6SM SCT080 BKN120 FM170900 27009KT P6SM VCSH SCT040 BKN080 FM171300 33010KT P6SM SCT040 BKN080 FM171700 24012G18KT P6SM SCT060 BKN100

Sep-17@
00:00 UTC

Sep-17 @ 00:00 UTC

Sep-17@
09:00 UTC

Sep-17 @ 09:00 UTC

KLGU 162321Z 1700/1724 20020G30KT P6SM SCT080 BKN120
Wind
  • 200° at 20 KTS
  • {Gusting to 30 KTS
Cloud Levels
  • Scattered at 8,000' AGL
  • Broken at 12,000' AGL

Sep-17@
09:00 UTC

Sep-17 @ 09:00 UTC

Sep-17@
13:00 UTC

Sep-17 @ 13:00 UTC

FM170900 27009KT P6SM VCSH SCT040 BKN080

From

From Standard forecast or significant change

Wind
  • 270° at 9 KTS
Cloud Levels
  • Scattered at 4,000' AGL
  • Broken at 8,000' AGL

Sep-17@
13:00 UTC

Sep-17 @ 13:00 UTC

Sep-17@
17:00 UTC

Sep-17 @ 17:00 UTC

FM171300 33010KT P6SM SCT040 BKN080

From

From Standard forecast or significant change

Wind
  • 330° at 10 KTS
Cloud Levels
  • Scattered at 4,000' AGL
  • Broken at 8,000' AGL

Sep-17@
17:00 UTC

Sep-17 @ 17:00 UTC

Sep-18@
00:00 UTC

Sep-18 @ 00:00 UTC

FM171700 24012G18KT P6SM SCT060 BKN100

From

From Standard forecast or significant change

Wind
  • 240° at 12 KTS
  • {Gusting to 18 KTS
Cloud Levels
  • Scattered at 6,000' AGL
  • Broken at 10,000' AGL